createdAt,value
2019-03-28T00:02:01.616Z,7.44
2019-03-28T00:04:33.750Z,7.46
2019-03-28T00:07:05.711Z,7.45
2019-03-28T00:09:37.582Z,7.39
2019-03-28T00:12:09.525Z,7.42
2019-03-28T00:14:41.327Z,7.42
2019-03-28T00:17:13.129Z,7.43
2019-03-28T00:19:44.970Z,7.54
2019-03-28T00:22:27.308Z,7.38
2019-03-28T00:25:03.757Z,7.37
2019-03-28T00:27:35.673Z,7.39
2019-03-28T00:30:08.132Z,7.36
2019-03-28T00:32:39.929Z,7.46
2019-03-28T00:35:12.859Z,6.44
2019-03-28T00:37:44.733Z,6.90
2019-03-28T00:40:16.773Z,6.58
2019-03-28T00:42:48.586Z,6.73
2019-03-28T00:45:20.477Z,6.43
2019-03-28T00:47:52.457Z,6.46
2019-03-28T00:50:24.257Z,6.81
2019-03-28T00:52:56.133Z,6.67
2019-03-28T00:55:28.123Z,6.62
2019-03-28T00:57:59.899Z,7.07
2019-03-28T01:00:31.891Z,6.92
2019-03-28T01:03:03.826Z,7.13
2019-03-28T01:05:35.865Z,6.27
2019-03-28T01:08:07.979Z,6.36
2019-03-28T01:10:39.769Z,6.13
2019-03-28T01:13:11.581Z,5.88
2019-03-28T01:15:43.385Z,5.73
2019-03-28T01:18:15.246Z,6.43
2019-03-28T01:20:47.127Z,6.49
2019-03-28T01:23:18.992Z,5.88
2019-03-28T01:25:51.109Z,5.67
2019-03-28T01:28:23.961Z,5.57
2019-03-28T01:30:55.954Z,6.05
2019-03-28T01:33:27.751Z,6.61
2019-03-28T01:35:59.557Z,6.94
2019-03-28T01:38:31.348Z,6.97
2019-03-28T01:41:03.254Z,6.46
2019-03-28T01:43:35.205Z,6.75
2019-03-28T01:46:08.190Z,7.02
2019-03-28T01:48:40.185Z,6.02
2019-03-28T01:51:12.336Z,5.88
2019-03-28T01:53:44.306Z,6.65
2019-03-28T01:56:16.174Z,6.80
2019-03-28T01:58:48.122Z,6.86
2019-03-28T02:01:19.918Z,7.14
2019-03-28T02:03:51.961Z,7.04
2019-03-28T02:06:24.921Z,6.78
2019-03-28T02:08:56.895Z,6.53
2019-03-28T02:11:28.889Z,6.47
2019-03-28T02:14:00.704Z,6.82
2019-03-28T02:16:32.731Z,6.43
2019-03-28T02:19:05.779Z,6.30
2019-03-28T02:21:38.143Z,6.88
2019-03-28T02:24:09.981Z,6.59
2019-03-28T02:26:41.839Z,6.38
2019-03-28T02:29:13.731Z,5.65
2019-03-28T02:31:45.547Z,5.66
2019-03-28T02:34:17.345Z,6.49
2019-03-28T02:36:49.167Z,6.37
2019-03-28T02:39:21.028Z,5.95
2019-03-28T02:41:53.012Z,5.81
2019-03-28T02:44:24.958Z,6.07
2019-03-28T02:46:56.953Z,6.55
2019-03-28T02:49:28.716Z,6.67
2019-03-28T02:52:00.677Z,6.90
2019-03-28T02:54:32.485Z,6.87
2019-03-28T02:57:04.524Z,7.03
2019-03-28T02:59:36.332Z,6.57
2019-03-28T03:02:08.249Z,6.87
2019-03-28T03:04:40.215Z,6.90
2019-03-28T03:07:12.105Z,6.86
2019-03-28T03:09:43.882Z,6.85
2019-03-28T03:12:15.764Z,6.39
2019-03-28T03:14:47.587Z,6.32
2019-03-28T03:17:19.467Z,6.07
2019-03-28T03:19:51.874Z,6.74
2019-03-28T03:22:23.695Z,6.41
2019-03-28T03:24:55.627Z,6.78
2019-03-28T03:27:27.542Z,7.03
2019-03-28T03:29:59.518Z,7.05
2019-03-28T03:32:31.495Z,6.92
2019-03-28T03:35:03.384Z,6.76
2019-03-28T03:37:35.352Z,6.92
2019-03-28T03:40:08.865Z,6.86
2019-03-28T03:42:40.651Z,6.71
2019-03-28T03:45:12.799Z,6.99
2019-03-28T03:47:45.763Z,7.02
2019-03-28T03:50:28.432Z,6.96
2019-03-28T03:53:00.331Z,6.70
2019-03-28T03:55:32.237Z,6.96
2019-03-28T03:58:15.574Z,7.06
2019-03-28T04:00:39.181Z,6.86
2019-03-28T04:03:11.139Z,6.89
2019-03-28T04:05:43.086Z,6.73
2019-03-28T04:08:14.965Z,6.28
2019-03-28T04:10:46.829Z,6.38
2019-03-28T04:13:18.951Z,6.61
2019-03-28T04:15:51.016Z,6.64
2019-03-28T04:18:22.900Z,6.76
2019-03-28T04:20:54.701Z,6.52
2019-03-28T04:23:26.613Z,6.78
2019-03-28T04:25:58.417Z,6.88
2019-03-28T04:28:32.030Z,6.98
2019-03-28T04:31:03.864Z,6.61
2019-03-28T04:33:35.840Z,6.94
2019-03-28T04:36:07.917Z,6.83
2019-03-28T04:38:39.718Z,6.38
2019-03-28T04:41:11.579Z,6.56
2019-03-28T04:43:43.456Z,6.36
2019-03-28T04:46:16.214Z,6.08
2019-03-28T04:48:50.660Z,6.23
2019-03-28T04:51:21.792Z,6.27
2019-03-28T04:53:56.314Z,6.51
2019-03-28T04:56:27.512Z,6.42
2019-03-28T04:58:59.494Z,6.40
2019-03-28T05:01:31.347Z,6.41
2019-03-28T05:04:03.225Z,6.55
2019-03-28T05:06:37.872Z,6.45
2019-03-28T05:09:08.990Z,6.46
2019-03-28T05:11:40.867Z,6.45
2019-03-28T05:14:12.713Z,6.51
2019-03-28T05:16:44.537Z,6.76
2019-03-28T05:19:16.330Z,6.59
2019-03-28T05:21:48.381Z,6.72
2019-03-28T05:24:20.320Z,6.74
2019-03-28T05:26:52.573Z,6.65
2019-03-28T05:29:24.537Z,6.43
2019-03-28T05:31:56.619Z,6.66
2019-03-28T05:34:28.541Z,6.97
2019-03-28T05:37:00.439Z,6.93
2019-03-28T05:39:32.261Z,7.02
2019-03-28T05:42:04.347Z,7.11
2019-03-28T05:44:36.247Z,6.77
2019-03-28T05:47:08.188Z,6.60
2019-03-28T05:49:39.959Z,6.41
2019-03-28T05:52:11.919Z,6.67
2019-03-28T05:54:43.716Z,6.59
2019-03-28T05:57:15.579Z,6.79
2019-03-28T05:59:47.387Z,7.09
2019-03-28T06:02:19.287Z,6.58
2019-03-28T06:04:51.108Z,6.87
2019-03-28T06:07:22.891Z,6.72
2019-03-28T06:09:54.764Z,6.60
2019-03-28T06:12:26.644Z,6.64
2019-03-28T06:14:58.531Z,6.67
2019-03-28T06:17:30.411Z,7.05
2019-03-28T06:20:02.311Z,6.31
2019-03-28T06:22:34.281Z,6.60
2019-03-28T06:25:06.611Z,7.54
2019-03-28T06:27:38.467Z,7.59
2019-03-28T06:30:12.958Z,7.38
2019-03-28T06:32:44.763Z,7.58
2019-03-28T06:35:16.735Z,7.09
2019-03-28T06:37:51.307Z,6.74
2019-03-28T06:40:22.300Z,7.26
2019-03-28T06:42:54.239Z,7.53
2019-03-28T06:45:26.247Z,7.41
2019-03-28T06:47:58.038Z,7.85
2019-03-28T06:50:29.831Z,7.94
2019-03-28T06:53:01.931Z,7.47
2019-03-28T06:55:36.874Z,7.30
2019-03-28T06:58:08.690Z,7.25
2019-03-28T07:00:40.486Z,7.34
2019-03-28T07:03:12.923Z,7.77
2019-03-28T07:05:44.871Z,7.73
2019-03-28T07:08:16.851Z,8.09
2019-03-28T07:10:48.938Z,7.68
2019-03-28T07:13:20.811Z,7.68
2019-03-28T07:15:52.801Z,7.60
2019-03-28T07:18:24.825Z,7.50
2019-03-28T07:20:56.936Z,7.68
2019-03-28T07:23:29.066Z,7.78
2019-03-28T07:26:00.906Z,7.86
2019-03-28T07:28:33.551Z,7.77
2019-03-28T07:31:05.897Z,8.62
2019-03-28T07:33:37.835Z,8.43
2019-03-28T07:36:09.810Z,8.11
2019-03-28T07:38:41.718Z,8.28
2019-03-28T07:41:16.367Z,8.15
2019-03-28T07:43:47.206Z,8.40
2019-03-28T07:46:20.261Z,9.19
2019-03-28T07:48:52.245Z,8.69
2019-03-28T07:51:24.065Z,8.70
2019-03-28T07:53:55.840Z,8.82
2019-03-28T07:56:27.667Z,9.79
2019-03-28T07:58:59.533Z,10.19
2019-03-28T08:01:31.422Z,10.02
2019-03-28T08:04:03.229Z,10.37
2019-03-28T08:06:48.781Z,9.94
2019-03-28T08:09:11.212Z,10.37
2019-03-28T08:11:43.189Z,9.96
2019-03-28T08:14:15.171Z,9.95
2019-03-28T08:16:47.080Z,9.77
2019-03-28T08:19:18.988Z,9.01
2019-03-28T08:21:51.040Z,9.20
2019-03-28T08:24:23.260Z,9.53
2019-03-28T08:26:55.075Z,10.19
2019-03-28T08:29:26.848Z,10.05
2019-03-28T08:31:59.579Z,10.94
2019-03-28T08:34:31.527Z,10.25
2019-03-28T08:37:03.973Z,10.61
2019-03-28T08:39:35.996Z,10.89
2019-03-28T08:42:07.982Z,11.17
2019-03-28T08:44:39.927Z,11.09
2019-03-28T08:47:11.968Z,10.54
2019-03-28T08:49:44.058Z,10.52
2019-03-28T08:52:15.912Z,9.55
2019-03-28T08:54:47.817Z,9.86
2019-03-28T08:57:19.687Z,11.09
2019-03-28T08:59:51.509Z,11.22
2019-03-28T09:02:23.369Z,11.69
2019-03-28T09:04:56.441Z,11.73
2019-03-28T09:07:28.405Z,12.21
2019-03-28T09:10:00.369Z,10.82
2019-03-28T09:12:35.142Z,11.60
2019-03-28T09:17:56.078Z,10.59
2019-03-28T09:20:28.292Z,11.51
2019-03-28T09:23:00.190Z,12.23
2019-03-28T09:25:32.026Z,12.10
2019-03-28T09:28:03.911Z,12.17
2019-03-28T09:30:49.742Z,12.07
2019-03-28T09:33:19.266Z,12.29
2019-03-28T09:35:51.497Z,11.99
2019-03-28T09:38:23.881Z,12.02
2019-03-28T09:40:55.927Z,12.39
2019-03-28T09:43:27.895Z,11.95
2019-03-28T09:46:00.573Z,12.51
2019-03-28T09:48:33.288Z,13.13
2019-03-28T09:51:05.276Z,12.42
2019-03-28T09:53:37.175Z,11.66
2019-03-28T09:56:09.051Z,12.43
2019-03-28T09:58:41.018Z,12.63
2019-03-28T10:01:13.213Z,12.14
2019-03-28T10:03:45.047Z,12.25
2019-03-28T10:06:16.878Z,12.33
2019-03-28T10:08:48.814Z,12.34
2019-03-28T10:11:20.684Z,12.56
2019-03-28T10:13:53.625Z,12.47
2019-03-28T10:16:25.589Z,12.47
2019-03-28T10:18:57.388Z,12.25
2019-03-28T10:21:29.285Z,12.61
2019-03-28T10:24:01.116Z,13.11
2019-03-28T10:26:33.036Z,12.01
2019-03-28T10:29:05.215Z,12.27
2019-03-28T10:31:37.163Z,12.84
2019-03-28T10:34:09.141Z,11.12
2019-03-28T10:36:41.186Z,10.93
2019-03-28T10:39:13.046Z,11.02
2019-03-28T10:41:45.141Z,12.01
2019-03-28T10:44:16.967Z,12.52
2019-03-28T10:46:48.867Z,12.50
2019-03-28T10:49:20.823Z,12.09
2019-03-28T10:51:52.975Z,12.40
2019-03-28T10:54:25.894Z,11.95
2019-03-28T10:56:58.177Z,11.61
2019-03-28T10:59:30.306Z,12.76
2019-03-28T11:02:02.188Z,13.13
2019-03-28T11:04:34.104Z,12.91
2019-03-28T11:07:06.153Z,12.94
2019-03-28T11:09:39.140Z,13.16
2019-03-28T11:12:11.081Z,13.00
2019-03-28T11:14:46.127Z,12.48
2019-03-28T11:17:16.543Z,12.91
2019-03-28T11:19:48.394Z,12.96
2019-03-28T11:22:20.407Z,12.47
2019-03-28T11:24:52.569Z,12.52
2019-03-28T11:27:24.558Z,12.56
2019-03-28T11:29:56.588Z,13.12
2019-03-28T11:32:28.494Z,13.29
2019-03-28T11:35:00.423Z,13.41
2019-03-28T11:37:32.322Z,13.68
2019-03-28T11:40:05.214Z,13.75
2019-03-28T11:42:37.096Z,12.66
2019-03-28T11:45:10.028Z,13.17
2019-03-28T11:47:42.285Z,12.52
2019-03-28T11:50:17.089Z,12.41
2019-03-28T11:52:48.476Z,12.75
2019-03-28T11:55:20.337Z,12.70
2019-03-28T11:57:52.273Z,12.04
2019-03-28T12:00:24.256Z,11.97
2019-03-28T12:02:56.247Z,11.85
2019-03-28T12:05:28.107Z,12.21
2019-03-28T12:07:59.934Z,12.70
2019-03-28T12:10:31.949Z,12.29
2019-03-28T12:13:03.926Z,12.52
2019-03-28T12:15:35.843Z,12.73
2019-03-28T12:18:07.839Z,12.56
2019-03-28T12:20:39.861Z,12.21
2019-03-28T12:23:11.720Z,12.42
2019-03-28T12:25:43.706Z,13.14
2019-03-28T12:28:17.545Z,13.37
2019-03-28T12:30:49.638Z,13.41
2019-03-28T12:33:21.644Z,13.39
2019-03-28T12:35:53.664Z,13.12
2019-03-28T12:38:25.603Z,13.31
2019-03-28T12:40:57.522Z,13.18
2019-03-28T12:43:29.468Z,12.73
2019-03-28T12:46:01.373Z,12.98
2019-03-28T12:48:33.221Z,12.36
2019-03-28T12:51:05.247Z,12.23
2019-03-28T12:53:37.407Z,12.77
2019-03-28T12:56:09.284Z,12.43
2019-03-28T12:58:41.304Z,12.04
2019-03-28T13:01:13.339Z,12.64
2019-03-28T13:03:46.439Z,11.93
2019-03-28T13:06:18.524Z,11.56
2019-03-28T13:08:50.425Z,11.94
2019-03-28T13:11:22.273Z,12.06
2019-03-28T13:13:55.413Z,12.34
2019-03-28T13:16:27.265Z,12.21
2019-03-28T13:18:59.126Z,12.51
2019-03-28T13:21:31.053Z,13.03
2019-03-28T13:24:03.078Z,12.71
2019-03-28T13:26:35.019Z,12.66
2019-03-28T13:29:07.199Z,12.50
2019-03-28T13:31:39.099Z,12.16
2019-03-28T13:34:11.106Z,12.29
2019-03-28T13:36:43.031Z,12.41
2019-03-28T13:39:14.899Z,12.25
2019-03-28T13:41:46.749Z,12.58
2019-03-28T13:44:18.581Z,12.67
2019-03-28T13:46:50.605Z,12.53
2019-03-28T13:49:22.712Z,12.72
2019-03-28T13:51:54.767Z,12.39
2019-03-28T13:54:26.724Z,11.84
2019-03-28T13:56:58.580Z,12.62
2019-03-28T13:59:31.103Z,12.77
2019-03-28T14:02:06.713Z,12.42
2019-03-28T14:04:37.716Z,12.24
2019-03-28T14:07:09.615Z,12.22
2019-03-28T14:09:42.536Z,12.13
2019-03-28T14:12:14.549Z,12.04
2019-03-28T14:14:46.438Z,11.79
2019-03-28T14:17:18.265Z,11.97
2019-03-28T14:19:50.304Z,11.89
2019-03-28T14:22:22.224Z,11.98
2019-03-28T14:24:54.156Z,12.18
2019-03-28T14:27:26.086Z,12.42
2019-03-28T14:29:58.156Z,12.28
2019-03-28T14:32:32.963Z,12.28
2019-03-28T14:35:03.682Z,12.13
2019-03-28T14:37:35.588Z,12.14
2019-03-28T14:40:08.868Z,12.19
2019-03-28T14:42:41.261Z,11.82
2019-03-28T14:45:13.991Z,11.93
2019-03-28T14:47:46.177Z,12.42
2019-03-28T14:50:32.870Z,12.29
2019-03-28T14:53:05.155Z,12.41
2019-03-28T14:55:38.327Z,12.93
2019-03-28T14:58:10.433Z,12.57
2019-03-28T15:00:48.289Z,12.82
2019-03-28T15:03:26.256Z,12.97
2019-03-28T15:05:54.219Z,12.66
2019-03-28T15:08:26.145Z,12.31
2019-03-28T15:10:58.189Z,12.97
2019-03-28T15:13:30.090Z,12.08
2019-03-28T15:16:02.227Z,12.30
2019-03-28T15:18:34.251Z,12.07
2019-03-28T15:21:06.320Z,12.31
2019-03-28T15:23:38.453Z,12.17
2019-03-28T15:26:10.296Z,12.42
2019-03-28T15:28:42.331Z,12.55
2019-03-28T15:31:14.350Z,11.80
2019-03-28T15:33:46.212Z,12.39
2019-03-28T15:36:18.169Z,12.27
2019-03-28T15:38:50.082Z,12.41
2019-03-28T15:41:23.371Z,12.16
2019-03-28T15:43:55.278Z,12.57
2019-03-28T15:46:27.550Z,12.89
2019-03-28T15:48:59.391Z,12.22
2019-03-28T15:51:31.438Z,12.28
2019-03-28T15:54:03.484Z,12.43
2019-03-28T15:56:35.508Z,11.84
2019-03-28T15:59:08.451Z,11.75
2019-03-28T16:01:40.521Z,11.89
2019-03-28T16:04:13.648Z,12.16
2019-03-28T16:06:45.627Z,12.21
2019-03-28T16:09:18.785Z,11.77
2019-03-28T16:12:02.064Z,11.69
2019-03-28T16:14:24.603Z,11.64
2019-03-28T16:16:56.797Z,11.62
2019-03-28T16:19:28.816Z,12.05
2019-03-28T16:22:03.934Z,12.15
2019-03-28T16:24:34.371Z,11.56
2019-03-28T16:27:06.495Z,11.60
2019-03-28T16:29:38.484Z,11.65
2019-03-28T16:32:10.401Z,11.66
2019-03-28T16:34:43.572Z,11.42
2019-03-28T16:37:15.616Z,11.45
2019-03-28T16:39:49.901Z,11.59
2019-03-28T16:42:21.183Z,11.36
2019-03-28T16:44:53.245Z,11.22
2019-03-28T16:47:25.329Z,11.27
2019-03-28T16:49:58.413Z,11.34
2019-03-28T16:52:30.258Z,11.05
2019-03-28T16:55:02.177Z,11.09
2019-03-28T16:57:35.344Z,11.16
2019-03-28T17:00:11.375Z,11.05
2019-03-28T17:02:43.972Z,10.97
2019-03-28T17:05:16.159Z,11.17
2019-03-28T17:07:48.653Z,10.99
2019-03-28T17:10:47.039Z,10.85
2019-03-28T17:13:20.485Z,11.17
2019-03-28T17:15:52.486Z,10.93
2019-03-28T17:18:25.278Z,10.90
2019-03-28T17:20:57.289Z,11.02
2019-03-28T17:23:29.385Z,10.92
2019-03-28T17:26:01.395Z,10.94
2019-03-28T17:28:33.539Z,11.05
2019-03-28T17:31:05.559Z,11.05
2019-03-28T17:33:37.670Z,10.74
2019-03-28T17:36:09.705Z,10.76
2019-03-28T17:38:41.623Z,10.82
2019-03-28T17:41:13.638Z,10.86
2019-03-28T17:43:45.490Z,10.60
2019-03-28T17:46:18.373Z,10.42
2019-03-28T17:48:50.645Z,10.27
2019-03-28T17:51:22.833Z,10.29
2019-03-28T17:53:56.287Z,10.26
2019-03-28T17:56:28.294Z,10.25
2019-03-28T17:59:00.117Z,10.28
2019-03-28T18:01:31.994Z,10.24
2019-03-28T18:04:03.906Z,10.37
2019-03-28T18:06:36.041Z,10.62
2019-03-28T18:09:09.644Z,10.36
2019-03-28T18:11:41.770Z,10.34
2019-03-28T18:14:13.723Z,10.25
2019-03-28T18:16:45.681Z,10.20
2019-03-28T18:19:17.614Z,10.25
2019-03-28T18:22:02.398Z,10.21
2019-03-28T18:24:23.523Z,10.37
2019-03-28T18:26:55.377Z,10.12
2019-03-28T18:29:27.693Z,10.25
2019-03-28T18:32:00.025Z,10.07
2019-03-28T18:34:32.922Z,10.25
2019-03-28T18:37:04.805Z,10.14
2019-03-28T18:39:36.693Z,10.01
2019-03-28T18:42:08.631Z,10.00
2019-03-28T18:44:41.676Z,9.96
2019-03-28T18:47:13.747Z,10.08
2019-03-28T18:49:45.724Z,9.94
2019-03-28T18:52:17.579Z,9.80
2019-03-28T18:54:49.470Z,9.89
2019-03-28T18:57:21.491Z,9.98
2019-03-28T18:59:53.575Z,10.03
2019-03-28T19:02:25.409Z,9.89
2019-03-28T19:04:57.338Z,9.80
2019-03-28T19:07:29.247Z,9.81
2019-03-28T19:10:01.086Z,9.80
2019-03-28T19:12:33.123Z,9.82
2019-03-28T19:15:06.288Z,9.64
2019-03-28T19:17:38.547Z,9.75
2019-03-28T19:20:12.114Z,9.57
2019-03-28T19:22:44.178Z,9.72
2019-03-28T19:25:18.315Z,9.56
2019-03-28T19:27:50.354Z,9.57
2019-03-28T19:30:32.925Z,9.86
2019-03-28T19:33:07.001Z,9.79
2019-03-28T19:35:40.790Z,9.67
2019-03-28T19:38:13.157Z,9.44
2019-03-28T19:40:45.245Z,9.56
2019-03-28T19:43:20.754Z,10.24
2019-03-28T19:45:50.721Z,9.98
2019-03-28T19:48:22.828Z,10.19
2019-03-28T19:50:55.733Z,9.64
2019-03-28T19:53:27.633Z,9.57
2019-03-28T19:55:59.696Z,9.48
2019-03-28T19:58:34.872Z,10.01
2019-03-28T20:01:06.146Z,9.99
2019-03-28T20:03:38.027Z,9.95
2019-03-28T20:06:21.628Z,9.52
2019-03-28T20:08:47.002Z,9.67
2019-03-28T20:11:18.946Z,9.57
2019-03-28T20:13:52.055Z,9.77
2019-03-28T20:16:24.038Z,9.96
2019-03-28T20:18:56.616Z,10.12
2019-03-28T20:21:28.541Z,9.61
2019-03-28T20:24:00.392Z,9.59
2019-03-28T20:26:32.234Z,9.48
2019-03-28T20:29:04.412Z,9.50
2019-03-28T20:31:36.427Z,9.48
2019-03-28T20:34:08.704Z,9.48
2019-03-28T20:36:43.837Z,9.77
2019-03-28T20:39:14.600Z,9.54
2019-03-28T20:41:46.516Z,9.75
2019-03-28T20:44:18.974Z,9.81
2019-03-28T20:46:51.133Z,9.80
2019-03-28T20:49:23.268Z,9.30
2019-03-28T20:51:55.346Z,9.32
2019-03-28T20:54:27.220Z,9.31
2019-03-28T20:56:59.274Z,9.20
2019-03-28T20:59:31.501Z,9.45
2019-03-28T21:02:05.865Z,9.64
2019-03-28T21:04:39.328Z,9.52
2019-03-28T21:07:11.513Z,9.52
2019-03-28T21:09:43.704Z,9.64
2019-03-28T21:12:15.801Z,9.31
2019-03-28T21:14:48.097Z,9.43
2019-03-28T21:17:20.135Z,9.27
2019-03-28T21:19:52.023Z,9.41
2019-03-28T21:22:24.118Z,9.31
2019-03-28T21:24:56.204Z,9.33
2019-03-28T21:27:28.827Z,9.54
2019-03-28T21:30:00.796Z,9.41
2019-03-28T21:32:32.706Z,9.58
2019-03-28T21:35:04.893Z,9.56
2019-03-28T21:37:36.711Z,9.98
2019-03-28T21:40:09.315Z,9.69
2019-03-28T21:42:41.314Z,9.60
2019-03-28T21:45:14.948Z,9.28
2019-03-28T21:47:47.163Z,9.41
2019-03-28T21:50:19.126Z,9.17
2019-03-28T21:52:51.041Z,9.16
2019-03-28T21:55:23.092Z,8.99
2019-03-28T21:57:55.158Z,9.17
2019-03-28T22:00:27.129Z,9.22
2019-03-28T22:02:59.065Z,9.13
2019-03-28T22:05:31.091Z,9.02
2019-03-28T22:08:03.131Z,9.33
2019-03-28T22:10:35.169Z,9.09
2019-03-28T22:13:07.445Z,9.13
2019-03-28T22:15:40.242Z,9.02
2019-03-28T22:18:12.280Z,9.08
2019-03-28T22:20:44.369Z,9.36
2019-03-28T22:23:16.434Z,9.12
2019-03-28T22:25:48.475Z,9.17
2019-03-28T22:28:20.349Z,9.17
2019-03-28T22:30:52.334Z,9.56
2019-03-28T22:33:24.169Z,9.23
2019-03-28T22:35:56.043Z,9.33
2019-03-28T22:38:28.005Z,9.21
2019-03-28T22:41:00.007Z,9.33
2019-03-28T22:43:32.964Z,9.17
2019-03-28T22:46:05.145Z,8.85
2019-03-28T22:48:37.093Z,8.90
2019-03-28T22:51:09.104Z,9.10
2019-03-28T22:53:42.668Z,9.23
2019-03-28T22:56:14.629Z,9.11
2019-03-28T22:58:46.631Z,9.21
2019-03-28T23:01:18.713Z,9.02
2019-03-28T23:03:52.344Z,9.19
2019-03-28T23:06:24.292Z,8.91
2019-03-28T23:08:56.136Z,9.23
2019-03-28T23:11:28.216Z,9.50
2019-03-28T23:14:00.207Z,9.48
2019-03-28T23:16:32.058Z,9.44
2019-03-28T23:19:04.315Z,9.19
2019-03-28T23:21:36.135Z,9.54
2019-03-28T23:24:08.068Z,8.97
2019-03-28T23:26:39.979Z,9.03
2019-03-28T23:29:11.932Z,8.87
2019-03-28T23:31:44.130Z,9.26
2019-03-28T23:34:16.119Z,9.14
2019-03-28T23:36:47.992Z,9.05
2019-03-28T23:39:21.037Z,9.16
2019-03-28T23:41:52.929Z,9.43
2019-03-28T23:44:24.859Z,9.56
2019-03-28T23:46:56.950Z,9.58
2019-03-28T23:49:28.953Z,9.09
2019-03-28T23:52:02.067Z,9.09
2019-03-28T23:54:34.064Z,9.42
2019-03-28T23:57:05.984Z,9.17
2019-03-28T23:59:37.968Z,9.25
